Time;durP1;ratioP1;P1;durP2;ratioP2;P2;SDS_P1;SDS_P2;PMS_P1;PMS_P2;Temp;Humidity;BMP_temperature;BMP_pressure;BME280_temperature;BME280_humidity;BME280_pressure;Samples;Min_cycle;Max_cycle;Signal;HPM_P1;HPM_P2
2021/07/03 00:00:14;;;;;;;2.75;2.10;;;12.50;99.90;;;;;;5067951;28;20540;-83
2021/07/03 00:02:41;;;;;;;3.40;2.15;;;12.50;99.90;;;;;;5061149;28;20394;-86
2021/07/03 00:05:09;;;;;;;3.00;2.13;;;12.60;99.90;;;;;;5057241;28;20876;-84
2021/07/03 00:07:36;;;;;;;2.70;2.13;;;12.60;99.90;;;;;;5054708;28;20391;-83
2021/07/03 00:10:05;;;;;;;3.30;2.00;;;12.70;99.90;;;;;;5055904;28;20391;-86
2021/07/03 00:12:32;;;;;;;2.30;1.83;;;12.80;99.90;;;;;;5067558;28;20390;-83
2021/07/03 00:14:59;;;;;;;1.73;1.63;;;12.90;99.90;;;;;;5056714;28;20398;-85
2021/07/03 00:17:26;;;;;;;2.40;1.65;;;13.00;99.90;;;;;;5061587;28;20537;-87
2021/07/03 00:19:53;;;;;;;3.75;1.25;;;13.20;99.90;;;;;;5064118;28;20738;-87
2021/07/03 00:22:20;;;;;;;2.35;1.27;;;13.60;99.90;;;;;;5057603;28;20394;-86
2021/07/03 00:24:47;;;;;;;2.92;1.50;;;14.30;99.90;;;;;;5061132;28;20395;-85
2021/07/03 00:27:14;;;;;;;1.77;1.03;;;15.10;99.90;;;;;;5078222;28;20474;-87
2021/07/03 00:29:40;;;;;;;1.30;1.10;;;15.30;99.90;;;;;;5059309;28;20920;-84
2021/07/03 00:32:08;;;;;;;2.03;1.13;;;15.20;99.90;;;;;;5053801;28;20392;-85
2021/07/03 00:34:35;;;;;;;2.85;1.08;;;15.10;99.90;;;;;;5060507;28;20390;-85
2021/07/03 00:37:02;;;;;;;1.65;0.80;;;15.00;99.90;;;;;;5065302;28;20481;-87
2021/07/03 00:39:29;;;;;;;0.90;0.80;;;14.80;99.90;;;;;;5071947;28;20916;-87
2021/07/03 00:41:56;;;;;;;1.38;0.80;;;14.50;99.90;;;;;;5072604;28;20401;-86
2021/07/03 00:44:34;;;;;;;3.70;0.90;;;14.40;99.90;;;;;;5067207;28;20402;-86
2021/07/03 00:47:01;;;;;;;3.67;0.80;;;14.30;99.90;;;;;;5072146;28;20401;-90
2021/07/03 00:49:29;;;;;;;1.20;0.80;;;14.20;99.90;;;;;;5052047;28;20390;-87
2021/07/03 00:51:56;;;;;;;0.77;0.77;;;14.20;99.90;;;;;;5053717;28;20387;-87
2021/07/03 00:54:23;;;;;;;1.40;0.65;;;14.30;99.90;;;;;;5058023;28;20398;-88
2021/07/03 00:57:01;;;;;;;1.27;0.70;;;14.20;99.90;;;;;;5055633;28;20419;-87
2021/07/03 00:59:39;;;;;;;0.82;0.60;;;14.20;99.90;;;;;;5057924;28;20462;-84
2021/07/03 01:02:08;;;;;;;0.55;0.43;;;14.30;99.90;;;;;;5058496;28;20409;-86
2021/07/03 01:04:35;;;;;;;1.55;0.57;;;14.30;99.90;;;;;;5053013;28;21262;-87
2021/07/03 01:07:04;;;;;;;1.50;0.60;;;14.30;99.90;;;;;;5056316;28;20394;-86
2021/07/03 01:09:32;;;;;;;0.75;0.50;;;14.40;99.90;;;;;;5071172;28;20382;-85
2021/07/03 01:11:59;;;;;;;1.63;0.60;;;14.40;99.90;;;;;;5061636;28;20386;-85
2021/07/03 01:14:27;;;;;;;2.13;0.50;;;14.50;99.90;;;;;;5071512;28;20398;-86
2021/07/03 01:16:54;;;;;;;1.55;0.80;;;14.50;99.90;;;;;;5056643;28;20387;-85
2021/07/03 01:19:21;;;;;;;0.77;0.47;;;14.50;99.90;;;;;;5053708;28;20412;-84
2021/07/03 01:21:53;;;;;;;1.30;0.50;;;14.70;99.90;;;;;;5063455;28;20391;-85
2021/07/03 01:24:23;;;;;;;1.40;0.50;;;14.70;99.90;;;;;;5058460;28;20381;-87
2021/07/03 01:26:53;;;;;;;0.98;0.50;;;14.70;99.90;;;;;;5052052;28;20886;-84
2021/07/03 01:29:23;;;;;;;0.57;0.50;;;14.80;99.90;;;;;;5065944;28;20389;-87
2021/07/03 01:31:53;;;;;;;1.52;0.70;;;14.90;99.90;;;;;;5068457;28;20370;-87
2021/07/03 01:34:22;;;;;;;4.60;0.60;;;14.90;99.90;;;;;;5063769;28;20406;-85
2021/07/03 01:36:49;;;;;;;0.60;0.40;;;15.00;99.90;;;;;;5070862;28;20918;-85
2021/07/03 01:39:16;;;;;;;0.90;0.60;;;15.00;99.90;;;;;;5055926;28;20422;-84
2021/07/03 01:41:44;;;;;;;0.40;0.40;;;15.00;99.90;;;;;;5065483;28;20397;-86
2021/07/03 01:44:12;;;;;;;2.55;0.55;;;15.10;99.90;;;;;;5071112;28;20382;-86
2021/07/03 01:46:39;;;;;;;1.30;0.60;;;15.10;99.90;;;;;;5070315;28;20359;-86
2021/07/03 01:49:09;;;;;;;0.75;0.65;;;15.20;99.90;;;;;;5067361;28;20740;-85
2021/07/03 01:51:38;;;;;;;3.03;0.65;;;15.30;99.90;;;;;;5063713;28;20486;-85
2021/07/03 01:54:05;;;;;;;1.30;0.80;;;15.30;99.90;;;;;;5069458;28;20374;-85
2021/07/03 01:56:32;;;;;;;1.63;0.73;;;15.30;99.90;;;;;;5055935;28;20380;-86
2021/07/03 01:58:59;;;;;;;1.60;1.00;;;15.30;99.90;;;;;;5058607;28;20444;-85
2021/07/03 02:01:26;;;;;;;1.55;0.80;;;15.40;99.90;;;;;;5061871;28;20390;-88
2021/07/03 02:03:53;;;;;;;2.15;1.30;;;15.40;99.90;;;;;;5066207;28;20389;-86
2021/07/03 02:06:20;;;;;;;2.47;1.40;;;15.40;99.90;;;;;;5062641;28;21186;-86
2021/07/03 02:08:47;;;;;;;2.38;1.52;;;15.40;99.90;;;;;;5062212;28;20457;-85
2021/07/03 02:11:14;;;;;;;1.80;1.20;;;15.40;99.90;;;;;;5052279;28;20425;-87
2021/07/03 02:13:41;;;;;;;1.92;1.50;;;15.40;99.90;;;;;;5053920;28;20399;-89
2021/07/03 02:16:08;;;;;;;2.80;1.70;;;15.60;99.90;;;;;;5055425;28;20435;-87
2021/07/03 02:18:35;;;;;;;1.80;1.70;;;15.80;99.90;;;;;;5060202;28;20756;-87
2021/07/03 02:21:02;;;;;;;2.78;1.77;;;15.80;99.90;;;;;;5053255;28;20415;-84
2021/07/03 02:23:29;;;;;;;1.83;1.70;;;15.80;99.90;;;;;;5049655;28;20407;-85
2021/07/03 02:25:56;;;;;;;1.80;1.70;;;15.80;99.90;;;;;;5050971;28;20494;-85
2021/07/03 02:28:24;;;;;;;2.60;1.90;;;15.90;99.90;;;;;;5050898;28;20394;-85
2021/07/03 02:30:52;;;;;;;2.42;1.23;;;15.90;99.90;;;;;;5066716;28;20428;-83
2021/07/03 02:33:19;;;;;;;1.13;0.93;;;15.90;99.90;;;;;;5068064;28;20421;-85
2021/07/03 02:35:46;;;;;;;1.30;0.70;;;16.00;99.90;;;;;;5055869;28;20407;-84
2021/07/03 02:38:13;;;;;;;1.65;0.90;;;16.10;99.90;;;;;;5059111;28;20394;-85
2021/07/03 02:40:40;;;;;;;0.70;0.70;;;16.20;99.90;;;;;;5069712;28;20385;-86
2021/07/03 02:43:07;;;;;;;1.20;0.60;;;16.30;99.90;;;;;;5051349;28;20851;-87
2021/07/03 02:45:34;;;;;;;0.60;0.60;;;16.30;99.90;;;;;;5054599;28;20417;-85
2021/07/03 02:48:01;;;;;;;1.60;0.73;;;16.20;99.90;;;;;;5070113;28;20888;-85
2021/07/03 02:50:28;;;;;;;1.05;0.75;;;16.10;99.90;;;;;;5068281;28;20401;-85
2021/07/03 02:52:55;;;;;;;1.70;0.93;;;16.10;99.90;;;;;;5063030;28;20409;-85
2021/07/03 02:55:22;;;;;;;0.98;0.70;;;16.20;99.90;;;;;;5061995;28;20399;-84
2021/07/03 02:57:49;;;;;;;0.98;0.70;;;16.10;99.90;;;;;;5059957;28;20395;-81
2021/07/03 03:00:17;;;;;;;1.17;0.50;;;16.10;99.90;;;;;;5051373;28;20499;-82
2021/07/03 03:02:45;;;;;;;0.98;0.40;;;16.10;99.90;;;;;;5052291;28;20386;-86
2021/07/03 03:05:13;;;;;;;0.45;0.30;;;16.20;99.90;;;;;;5052457;28;20458;-84
2021/07/03 03:07:41;;;;;;;0.43;0.35;;;16.30;99.70;;;;;;5056390;28;20394;-85
2021/07/03 03:10:11;;;;;;;0.93;0.45;;;16.40;99.90;;;;;;5068244;28;20855;-86
2021/07/03 03:12:38;;;;;;;0.55;0.20;;;16.50;99.90;;;;;;5062205;28;20710;-85
2021/07/03 03:15:07;;;;;;;0.57;0.40;;;16.50;99.00;;;;;;5070143;28;20524;-85
2021/07/03 03:17:35;;;;;;;1.20;0.50;;;16.60;99.20;;;;;;5075777;28;20467;-86
2021/07/03 03:20:03;;;;;;;0.60;0.35;;;16.60;99.80;;;;;;5067246;28;20892;-86
2021/07/03 03:22:30;;;;;;;0.90;0.40;;;16.60;96.20;;;;;;5048706;28;20542;-86
2021/07/03 03:24:57;;;;;;;0.50;0.20;;;16.80;94.60;;;;;;5049258;28;20395;-85
2021/07/03 03:27:24;;;;;;;1.30;0.40;;;16.90;97.20;;;;;;5048790;28;20863;-85
2021/07/03 03:29:51;;;;;;;1.58;0.30;;;17.10;97.30;;;;;;5059170;28;20412;-86
2021/07/03 03:32:18;;;;;;;1.17;0.25;;;17.10;96.80;;;;;;5062493;28;20464;-86
2021/07/03 03:34:45;;;;;;;1.70;0.30;;;17.00;97.70;;;;;;5068746;28;20740;-84
2021/07/03 03:37:12;;;;;;;0.88;0.20;;;17.00;98.30;;;;;;5068320;28;20383;-85
2021/07/03 03:39:39;;;;;;;0.38;0.35;;;16.90;99.10;;;;;;5061905;28;20402;-86
2021/07/03 03:42:07;;;;;;;1.27;0.30;;;16.80;99.90;;;;;;5059393;28;20433;-86
2021/07/03 03:44:34;;;;;;;0.40;0.30;;;16.70;99.90;;;;;;5068454;28;20390;-85
2021/07/03 03:47:01;;;;;;;0.73;0.50;;;16.70;99.80;;;;;;5065646;28;20936;-86
2021/07/03 03:49:28;;;;;;;0.55;0.40;;;16.70;99.90;;;;;;5052184;28;20943;-85
2021/07/03 03:51:55;;;;;;;1.23;0.30;;;16.60;99.90;;;;;;5080439;28;20380;-84
2021/07/03 03:54:22;;;;;;;1.05;0.45;;;16.70;99.90;;;;;;5075874;28;20558;-85
2021/07/03 03:57:21;;;;;;;0.85;0.50;;;16.70;99.70;;;;;;5069893;28;20374;-85
2021/07/03 03:59:36;;;;;;;0.43;0.40;;;16.70;99.90;;;;;;5055041;28;20429;-85
2021/07/03 04:02:03;;;;;;;1.10;0.60;;;16.70;99.70;;;;;;5072381;28;20374;-87
2021/07/03 04:04:30;;;;;;;0.80;0.40;;;16.70;99.80;;;;;;5072433;28;20377;-87
2021/07/03 04:06:57;;;;;;;2.10;0.47;;;16.70;99.50;;;;;;5063466;28;20390;-86
2021/07/03 04:09:24;;;;;;;0.40;0.30;;;16.70;99.90;;;;;;5057666;28;21359;-86
2021/07/03 04:11:51;;;;;;;0.52;0.50;;;16.70;99.60;;;;;;5065688;28;20418;-84
2021/07/03 04:14:18;;;;;;;1.80;0.70;;;16.70;99.90;;;;;;5069255;28;20388;-86
2021/07/03 04:16:45;;;;;;;0.70;0.60;;;16.80;99.90;;;;;;5070118;28;20886;-84
2021/07/03 04:19:12;;;;;;;0.50;0.50;;;16.90;99.90;;;;;;5088683;28;20818;-84
2021/07/03 04:21:38;;;;;;;0.80;0.30;;;17.10;99.60;;;;;;5071419;28;20387;-87
2021/07/03 04:24:06;;;;;;;1.33;0.43;;;17.20;99.50;;;;;;5073296;28;20366;-85
2021/07/03 04:26:33;;;;;;;0.40;0.30;;;17.30;99.60;;;;;;5071957;28;20389;-85
2021/07/03 04:29:00;;;;;;;2.78;0.43;;;17.40;99.10;;;;;;5057828;28;20391;-84
2021/07/03 04:31:27;;;;;;;0.60;0.40;;;17.30;98.10;;;;;;5080483;28;20386;-87
2021/07/03 04:33:53;;;;;;;0.75;0.47;;;17.20;99.20;;;;;;5078074;28;20389;-85
2021/07/03 04:36:20;;;;;;;1.88;0.50;;;17.10;99.70;;;;;;5078724;28;20786;-85
2021/07/03 04:38:47;;;;;;;1.50;0.40;;;17.00;99.60;;;;;;5077846;28;20402;-85
2021/07/03 04:41:14;;;;;;;2.30;0.30;;;16.90;99.80;;;;;;5057142;28;20536;-84
2021/07/03 04:43:41;;;;;;;0.55;0.32;;;16.80;99.70;;;;;;5071669;28;20409;-84
2021/07/03 04:46:08;;;;;;;1.40;1.30;;;16.80;99.70;;;;;;5067422;28;20757;-84
2021/07/03 04:48:35;;;;;;;1.38;0.88;;;16.80;99.90;;;;;;5051484;28;20769;-85
2021/07/03 04:51:02;;;;;;;1.30;0.50;;;16.80;99.90;;;;;;5051376;28;20379;-85
2021/07/03 04:53:29;;;;;;;2.03;0.35;;;16.80;99.80;;;;;;5055976;28;20392;-87
2021/07/03 04:55:56;;;;;;;0.65;0.40;;;16.70;99.90;;;;;;5049821;28;20871;-84
2021/07/03 04:58:23;;;;;;;0.90;0.43;;;16.70;99.90;;;;;;5058311;28;20792;-85
2021/07/03 05:00:50;;;;;;;1.23;0.57;;;16.60;99.90;;;;;;5065997;28;20437;-89
2021/07/03 05:03:17;;;;;;;1.02;0.50;;;16.50;99.90;;;;;;5056306;28;20902;-85
2021/07/03 05:05:44;;;;;;;0.90;0.40;;;16.40;99.90;;;;;;5067550;28;20433;-86
2021/07/03 05:08:11;;;;;;;1.38;0.50;;;16.30;99.90;;;;;;5057088;28;20395;-85
2021/07/03 05:10:38;;;;;;;0.80;0.40;;;16.20;99.90;;;;;;5051521;28;20444;-84
2021/07/03 05:13:05;;;;;;;0.93;0.40;;;16.20;99.90;;;;;;5051468;28;20400;-86
2021/07/03 05:15:32;;;;;;;0.30;0.30;;;16.20;99.90;;;;;;5054141;28;20395;-86
2021/07/03 05:18:01;;;;;;;1.00;0.40;;;16.20;99.90;;;;;;5051193;28;20410;-86
2021/07/03 05:20:28;;;;;;;0.40;0.30;;;16.20;99.90;;;;;;5061021;28;20418;-84
2021/07/03 05:22:55;;;;;;;2.17;0.47;;;16.10;99.90;;;;;;5062562;28;20898;-87
2021/07/03 05:25:23;;;;;;;1.70;0.40;;;16.10;99.90;;;;;;5052469;28;20874;-85
2021/07/03 05:27:49;;;;;;;1.75;0.50;;;16.20;99.90;;;;;;5054730;28;20402;-84
2021/07/03 05:30:17;;;;;;;0.60;0.57;;;16.20;99.90;;;;;;5061843;28;20902;-85
2021/07/03 05:32:44;;;;;;;1.05;0.43;;;16.20;99.90;;;;;;5052366;28;20390;-86
2021/07/03 05:35:12;;;;;;;0.80;0.70;;;16.10;99.90;;;;;;5061279;28;20405;-83
2021/07/03 05:37:41;;;;;;;1.83;0.85;;;16.20;99.90;;;;;;5054447;28;20372;-84
2021/07/03 05:40:10;;;;;;;0.57;0.55;;;16.10;99.90;;;;;;5052616;28;20909;-83
2021/07/03 05:42:38;;;;;;;1.20;0.60;;;16.00;99.90;;;;;;5065216;28;20406;-84
2021/07/03 05:45:06;;;;;;;0.57;0.40;;;16.00;99.90;;;;;;5063554;28;20424;-84
2021/07/03 05:47:33;;;;;;;0.80;0.50;;;15.90;99.90;;;;;;5057131;28;20487;-82
2021/07/03 05:50:00;;;;;;;1.10;0.55;;;15.90;99.90;;;;;;5051249;28;20423;-83
2021/07/03 05:52:27;;;;;;;0.82;0.50;;;15.80;99.90;;;;;;5052398;28;20465;-85
2021/07/03 05:54:54;;;;;;;0.88;0.50;;;15.80;99.90;;;;;;5068674;28;20386;-86
2021/07/03 05:57:24;;;;;;;0.77;0.40;;;15.70;99.90;;;;;;5070172;28;20366;-84
2021/07/03 05:59:51;;;;;;;2.55;0.50;;;15.70;99.90;;;;;;5054954;28;20415;-84
2021/07/03 06:02:18;;;;;;;1.85;0.47;;;15.60;99.90;;;;;;5051005;28;20396;-84
2021/07/03 06:04:45;;;;;;;1.63;0.70;;;15.50;99.90;;;;;;5055652;28;20407;-84
2021/07/03 06:07:12;;;;;;;2.05;0.52;;;15.60;99.90;;;;;;5055635;28;20396;-83
2021/07/03 06:09:39;;;;;;;1.88;0.77;;;15.60;99.90;;;;;;5058229;28;20433;-83
2021/07/03 06:12:07;;;;;;;2.30;0.82;;;15.50;99.90;;;;;;5055063;28;20463;-83
2021/07/03 06:14:33;;;;;;;1.80;1.02;;;15.50;99.90;;;;;;5051906;28;20410;-83
2021/07/03 06:17:00;;;;;;;1.95;0.93;;;15.50;99.90;;;;;;5057482;28;20438;-83
2021/07/03 06:19:28;;;;;;;2.35;0.98;;;15.60;99.90;;;;;;5062308;28;20413;-84
2021/07/03 06:21:55;;;;;;;1.10;1.00;;;15.60;99.90;;;;;;5063110;28;20906;-83
2021/07/03 06:24:22;;;;;;;1.50;0.93;;;15.60;99.90;;;;;;5050372;28;20549;-84
2021/07/03 06:26:49;;;;;;;2.88;1.50;;;15.60;99.90;;;;;;5052885;28;20763;-83
2021/07/03 06:29:16;;;;;;;2.75;1.00;;;15.50;99.90;;;;;;5055162;28;20397;-85
2021/07/03 06:31:43;;;;;;;2.15;1.08;;;15.40;99.90;;;;;;5061736;28;20415;-85
2021/07/03 06:34:10;;;;;;;1.25;1.05;;;15.20;99.90;;;;;;5049323;28;20400;-85
2021/07/03 06:36:37;;;;;;;2.28;0.95;;;15.10;99.90;;;;;;5048496;28;20391;-85
2021/07/03 06:39:05;;;;;;;2.17;1.20;;;15.00;99.90;;;;;;5049764;28;20396;-85
2021/07/03 06:41:32;;;;;;;3.75;1.30;;;14.90;99.90;;;;;;5049071;28;20396;-85
2021/07/03 06:43:59;;;;;;;3.63;1.88;;;14.70;99.90;;;;;;5049249;28;20873;-84
2021/07/03 06:46:28;;;;;;;2.75;1.83;;;14.70;99.90;;;;;;5052120;28;20475;-84
2021/07/03 06:48:55;;;;;;;3.38;2.00;;;14.60;99.90;;;;;;5054346;28;20420;-84
2021/07/03 06:51:23;;;;;;;4.27;2.03;;;14.60;99.90;;;;;;5060322;28;20875;-84
2021/07/03 06:53:50;;;;;;;2.95;1.70;;;14.50;99.90;;;;;;5054736;28;20383;-84
2021/07/03 06:56:17;;;;;;;2.50;1.30;;;14.40;99.90;;;;;;5054609;28;20460;-83
2021/07/03 06:58:44;;;;;;;3.47;1.70;;;14.20;99.90;;;;;;5053985;28;20406;-86
2021/07/03 07:01:11;;;;;;;2.20;1.70;;;14.10;99.90;;;;;;5054422;28;20402;-83
2021/07/03 07:03:37;;;;;;;4.50;1.70;;;13.90;99.90;;;;;;5054056;28;20395;-85
2021/07/03 07:06:04;;;;;;;3.65;1.50;;;13.80;99.90;;;;;;5054668;28;20451;-83
2021/07/03 07:08:31;;;;;;;3.40;1.60;;;13.70;99.90;;;;;;5063031;28;20831;-83
2021/07/03 07:10:58;;;;;;;4.07;2.00;;;13.60;99.90;;;;;;5048735;28;20403;-84
2021/07/03 07:13:25;;;;;;;3.42;1.95;;;13.50;99.90;;;;;;5058415;28;20486;-83
2021/07/03 07:15:52;;;;;;;2.92;2.00;;;13.40;99.90;;;;;;5068539;28;20387;-84
2021/07/03 07:18:19;;;;;;;3.75;2.35;;;13.30;99.90;;;;;;5052030;28;20390;-81
2021/07/03 07:20:47;;;;;;;5.65;3.80;;;13.20;99.90;;;;;;5050144;28;20449;-81
2021/07/03 07:23:14;;;;;;;6.90;3.53;;;13.20;99.90;;;;;;5071812;28;20869;-82
2021/07/03 07:25:42;;;;;;;4.53;3.10;;;13.10;99.90;;;;;;5059961;28;20406;-83
2021/07/03 07:28:09;;;;;;;3.95;2.90;;;13.00;99.90;;;;;;5055166;28;20388;-83
2021/07/03 07:30:36;;;;;;;4.50;2.70;;;13.00;99.90;;;;;;5053051;28;20384;-82
2021/07/03 07:33:03;;;;;;;5.10;2.88;;;13.00;99.90;;;;;;5061396;28;20387;-83
2021/07/03 07:35:30;;;;;;;4.63;2.60;;;13.00;99.90;;;;;;5057483;28;20395;-83
2021/07/03 07:37:57;;;;;;;7.03;2.90;;;12.90;99.90;;;;;;5059758;28;20401;-83
2021/07/03 07:40:24;;;;;;;5.03;2.85;;;12.90;99.90;;;;;;5052114;28;20430;-85
2021/07/03 07:42:50;;;;;;;4.80;2.70;;;12.90;99.90;;;;;;5055369;28;21185;-86
2021/07/03 07:45:17;;;;;;;4.50;2.57;;;12.90;99.90;;;;;;5066077;28;20395;-83
2021/07/03 07:47:45;;;;;;;6.10;2.70;;;12.80;99.90;;;;;;5055648;28;20386;-82
2021/07/03 07:50:12;;;;;;;9.02;3.38;;;12.70;99.90;;;;;;5085750;28;20947;-85
2021/07/03 07:52:39;;;;;;;6.32;3.15;;;12.70;99.90;;;;;;5059446;28;20406;-81
2021/07/03 07:55:10;;;;;;;8.57;6.80;;;12.60;99.90;;;;;;5059377;28;20426;-83
2021/07/03 07:57:37;;;;;;;11.50;9.03;;;12.50;99.90;;;;;;5052902;28;20723;-85
2021/07/03 08:00:05;;;;;;;11.15;8.52;;;12.50;99.90;;;;;;5054776;28;20431;-82
2021/07/03 08:02:32;;;;;;;11.75;6.60;;;12.50;99.90;;;;;;5051801;28;20410;-82
2021/07/03 08:04:59;;;;;;;9.82;6.38;;;12.50;99.90;;;;;;5059061;28;20436;-82
2021/07/03 08:07:26;;;;;;;10.98;5.97;;;12.30;99.90;;;;;;5056392;28;20399;-83
2021/07/03 08:09:53;;;;;;;9.15;4.80;;;12.30;99.90;;;;;;5056668;28;20404;-83
2021/07/03 08:12:20;;;;;;;7.75;4.35;;;12.30;99.90;;;;;;5062767;28;20474;-83
2021/07/03 08:14:47;;;;;;;92.80;64.50;;;12.10;99.90;;;;;;5051926;28;20383;-83
2021/07/03 08:17:14;;;;;;;18.60;12.95;;;12.10;99.90;;;;;;5070245;28;20792;-84
2021/07/03 08:19:41;;;;;;;10.43;7.60;;;12.00;99.90;;;;;;5071994;28;20781;-83
2021/07/03 08:22:08;;;;;;;11.65;7.28;;;11.90;99.90;;;;;;5052428;28;20423;-83
2021/07/03 08:24:35;;;;;;;8.17;6.67;;;12.00;99.90;;;;;;5057531;28;20826;-84
2021/07/03 08:27:03;;;;;;;11.77;7.97;;;12.00;99.90;;;;;;5062639;28;20393;-83
2021/07/03 08:29:30;;;;;;;33.92;25.83;;;12.10;99.90;;;;;;5069854;28;20395;-86
2021/07/03 08:31:57;;;;;;;15.88;8.75;;;12.10;99.90;;;;;;5067162;28;20414;-83
2021/07/03 08:34:24;;;;;;;13.33;8.00;;;12.10;99.90;;;;;;5050920;28;20448;-84
2021/07/03 08:36:50;;;;;;;15.38;7.85;;;12.00;99.90;;;;;;5063805;28;20885;-86
2021/07/03 08:39:17;;;;;;;19.55;9.88;;;12.00;99.90;;;;;;5051932;28;20396;-85
2021/07/03 08:41:45;;;;;;;16.27;9.95;;;12.00;99.90;;;;;;5060302;28;20496;-84
2021/07/03 08:44:16;;;;;;;14.35;9.25;;;12.00;99.90;;;;;;5057581;28;20401;-85
2021/07/03 08:46:46;;;;;;;13.63;9.67;;;12.00;99.90;;;;;;5073758;28;20902;-83
2021/07/03 08:49:14;;;;;;;14.30;9.70;;;12.10;99.90;;;;;;5056835;28;20399;-85
2021/07/03 08:51:43;;;;;;;14.80;10.88;;;12.10;99.90;;;;;;5055785;28;20391;-86
2021/07/03 08:54:10;;;;;;;16.20;12.02;;;12.20;99.90;;;;;;5059040;28;20393;-85
2021/07/03 08:56:37;;;;;;;22.08;14.80;;;12.30;99.90;;;;;;5061362;28;20402;-85
2021/07/03 08:59:20;;;;;;;22.63;15.07;;;12.40;99.90;;;;;;5067305;28;20525;-84
2021/07/03 09:01:57;;;;;;;18.05;13.70;;;12.40;99.90;;;;;;5071290;28;20378;-84
2021/07/03 09:04:53;;;;;;;20.05;13.23;;;12.40;99.90;;;;;;5058965;28;20482;-83
2021/07/03 09:07:22;;;;;;;18.85;12.07;;;12.40;99.90;;;;;;5057643;28;20398;-84
2021/07/03 09:09:55;;;;;;;13.05;9.35;;;12.40;99.90;;;;;;5051718;28;20399;-85
2021/07/03 09:12:30;;;;;;;16.00;7.65;;;12.40;99.90;;;;;;5065949;28;20397;-84
2021/07/03 09:15:08;;;;;;;11.77;7.70;;;12.40;99.90;;;;;;5057785;28;20410;-83
2021/07/03 09:17:49;;;;;;;12.85;6.95;;;12.40;99.90;;;;;;5050657;28;20853;-83
2021/07/03 09:20:37;;;;;;;16.93;10.70;;;12.30;99.90;;;;;;5052859;28;20491;-83
2021/07/03 09:23:12;;;;;;;15.93;8.20;;;12.20;99.90;;;;;;5063750;28;20390;-84
2021/07/03 09:25:43;;;;;;;13.80;8.25;;;12.20;99.90;;;;;;5053672;28;20469;-83
2021/07/03 09:28:16;;;;;;;12.40;8.20;;;12.20;99.90;;;;;;5054890;28;20441;-83
2021/07/03 09:30:49;;;;;;;13.23;9.70;;;12.10;99.90;;;;;;5051647;28;20794;-84
2021/07/03 09:33:24;;;;;;;18.52;11.90;;;12.00;99.90;;;;;;5060063;28;20950;-86
2021/07/03 09:35:57;;;;;;;15.13;10.98;;;11.90;99.90;;;;;;5054430;28;20905;-84
2021/07/03 09:38:47;;;;;;;16.40;10.90;;;11.90;99.90;;;;;;5090198;28;21003;-85
2021/07/03 09:41:31;;;;;;;14.55;11.07;;;11.80;99.90;;;;;;5062078;28;20386;-86
2021/07/03 09:44:16;;;;;;;21.90;16.42;;;11.90;99.90;;;;;;5068502;28;20399;-86
2021/07/03 09:46:49;;;;;;;24.80;18.02;;;11.70;99.90;;;;;;5067799;28;20416;-86
2021/07/03 09:49:22;;;;;;;27.25;18.42;;;11.50;99.90;;;;;;5067300;28;20478;-88
2021/07/03 09:51:59;;;;;;;27.55;19.75;;;11.50;99.90;;;;;;5066104;28;20395;-86
2021/07/03 09:54:32;;;;;;;27.52;17.30;;;11.40;99.90;;;;;;5063252;28;20538;-84
2021/07/03 09:56:59;;;;;;;20.30;14.73;;;11.40;99.90;;;;;;5057546;28;20387;-85
2021/07/03 09:59:32;;;;;;;32.85;22.15;;;11.50;99.90;;;;;;5062644;28;20477;-85
2021/07/03 10:01:59;;;;;;;22.48;15.93;;;11.50;99.90;;;;;;5067452;28;20382;-86
2021/07/03 10:04:26;;;;;;;25.40;18.27;;;11.50;99.90;;;;;;5061945;28;20452;-85
2021/07/03 10:07:05;;;;;;;25.60;17.40;;;11.50;99.90;;;;;;5063504;28;20996;-83
2021/07/03 10:09:34;;;;;;;42.47;32.45;;;11.60;99.90;;;;;;5053547;28;20482;-84
2021/07/03 10:12:06;;;;;;;36.28;26.77;;;11.60;99.90;;;;;;5053113;28;20404;-84
2021/07/03 10:14:44;;;;;;;18.90;15.15;;;11.50;99.90;;;;;;5061461;28;20390;-83
2021/07/03 10:17:21;;;;;;;22.08;14.55;;;11.50;99.90;;;;;;5052988;28;20383;-83
2021/07/03 10:19:49;;;;;;;17.58;13.25;;;11.40;99.90;;;;;;5067243;28;20738;-84
2021/07/03 10:22:23;;;;;;;13.10;9.40;;;11.40;99.90;;;;;;5069509;28;21241;-84
2021/07/03 10:24:54;;;;;;;14.03;10.17;;;11.40;99.90;;;;;;5049025;28;20471;-81
2021/07/03 10:27:23;;;;;;;9.90;7.72;;;11.40;99.90;;;;;;5056622;28;20376;-85
2021/07/03 10:29:54;;;;;;;10.50;7.75;;;11.40;99.90;;;;;;5048850;28;20917;-84
2021/07/03 10:32:29;;;;;;;9.30;7.25;;;11.40;99.90;;;;;;5050397;28;21113;-83
2021/07/03 10:35:15;;;;;;;11.25;7.53;;;11.40;99.90;;;;;;5060375;28;20896;-84
2021/07/03 10:37:43;;;;;;;9.57;6.68;;;11.40;99.90;;;;;;5055533;28;20893;-84
2021/07/03 10:40:25;;;;;;;9.13;6.67;;;11.50;99.90;;;;;;5053109;28;20448;-85
2021/07/03 10:42:54;;;;;;;9.45;6.55;;;11.50;99.90;;;;;;5046517;28;20496;-84
2021/07/03 10:45:23;;;;;;;10.43;6.63;;;11.50;99.90;;;;;;5049640;28;20428;-85
2021/07/03 10:47:54;;;;;;;7.70;6.20;;;11.50;99.90;;;;;;5066348;28;20471;-84
2021/07/03 10:50:28;;;;;;;8.18;6.20;;;11.50;99.90;;;;;;5079060;28;20401;-85
2021/07/03 10:52:57;;;;;;;7.68;5.60;;;11.50;99.90;;;;;;5050323;28;20486;-84
2021/07/03 10:55:35;;;;;;;7.20;5.35;;;11.50;99.90;;;;;;5050525;28;20532;-86
2021/07/03 10:58:13;;;;;;;9.48;6.15;;;11.50;99.90;;;;;;5066101;28;20374;-86
2021/07/03 11:00:40;;;;;;;7.53;5.53;;;11.40;99.90;;;;;;5060141;28;20493;-85
2021/07/03 11:03:20;;;;;;;9.77;6.00;;;11.40;99.90;;;;;;5045158;28;20491;-85
2021/07/03 11:05:47;;;;;;;6.78;5.43;;;11.40;99.90;;;;;;5046048;28;20408;-85
2021/07/03 11:08:16;;;;;;;10.50;5.68;;;11.40;99.90;;;;;;5046045;28;20391;-86
2021/07/03 11:10:43;;;;;;;8.82;5.70;;;11.30;99.90;;;;;;5046097;28;20503;-86
2021/07/03 11:13:25;;;;;;;5.18;4.68;;;11.30;99.90;;;;;;5057837;28;20422;-85
2021/07/03 11:15:53;;;;;;;6.70;4.50;;;11.10;99.90;;;;;;5057418;28;20403;-86
2021/07/03 11:18:20;;;;;;;6.20;4.70;;;11.10;99.90;;;;;;5044925;28;20406;-84
2021/07/03 11:20:47;;;;;;;9.77;4.60;;;10.90;99.90;;;;;;5051229;28;20414;-86
2021/07/03 11:23:18;;;;;;;6.60;4.82;;;10.90;99.90;;;;;;5063809;28;20425;-86
2021/07/03 11:25:46;;;;;;;12.70;8.85;;;10.80;99.90;;;;;;5060316;28;20410;-86
2021/07/03 11:28:14;;;;;;;13.93;10.88;;;10.70;99.90;;;;;;5045225;28;20445;-85
2021/07/03 11:30:43;;;;;;;10.25;7.78;;;10.70;99.90;;;;;;5050510;28;20406;-84
2021/07/03 11:33:11;;;;;;;9.98;8.60;;;10.70;99.90;;;;;;5064946;28;20520;-85
2021/07/03 11:35:46;;;;;;;10.90;8.20;;;10.60;99.90;;;;;;5049776;28;20407;-84
2021/07/03 11:38:14;;;;;;;12.20;9.43;;;10.60;99.90;;;;;;5045436;28;20806;-86
2021/07/03 11:40:41;;;;;;;12.82;8.65;;;10.60;99.90;;;;;;5045849;28;20404;-88
2021/07/03 11:43:08;;;;;;;9.50;6.05;;;10.50;99.90;;;;;;5056837;28;20405;-86
2021/07/03 11:45:38;;;;;;;10.23;6.50;;;10.50;99.90;;;;;;5059752;28;20396;-86
2021/07/03 11:48:14;;;;;;;9.50;6.93;;;10.50;99.90;;;;;;5050800;28;20399;-87
2021/07/03 11:50:49;;;;;;;12.48;8.05;;;10.40;99.90;;;;;;5048680;28;20407;-85
2021/07/03 11:53:33;;;;;;;15.68;11.57;;;10.40;99.90;;;;;;5027424;28;20494;-86
2021/07/03 11:56:02;;;;;;;13.85;10.13;;;10.30;99.90;;;;;;5047006;28;20411;-86
2021/07/03 11:58:31;;;;;;;11.20;8.60;;;10.30;99.90;;;;;;5045675;28;20497;-85
2021/07/03 12:01:06;;;;;;;8.13;6.93;;;10.30;99.90;;;;;;5047821;28;20399;-89
2021/07/03 12:03:42;;;;;;;12.65;8.23;;;10.30;99.90;;;;;;5051362;28;20489;-85
2021/07/03 12:06:09;;;;;;;9.00;6.15;;;10.30;99.90;;;;;;5045129;28;22044;-85
2021/07/03 12:08:39;;;;;;;8.13;5.60;;;10.30;99.90;;;;;;5049014;28;20501;-87
2021/07/03 12:11:11;;;;;;;12.65;9.07;;;10.20;99.90;;;;;;5049078;28;20397;-87
2021/07/03 12:13:44;;;;;;;10.27;6.95;;;10.20;99.90;;;;;;5055352;28;20453;-84
2021/07/03 12:16:13;;;;;;;11.10;7.65;;;10.20;99.90;;;;;;5048832;28;20383;-87
2021/07/03 12:18:51;;;;;;;12.35;8.90;;;10.20;99.90;;;;;;5056897;28;20812;-86
2021/07/03 12:21:24;;;;;;;6.35;5.50;;;10.20;99.90;;;;;;5068976;28;20768;-85
2021/07/03 12:23:58;;;;;;;8.13;5.20;;;10.10;99.90;;;;;;5068598;28;20378;-85
2021/07/03 12:26:31;;;;;;;6.27;4.90;;;10.10;99.90;;;;;;5066389;28;20480;-84
2021/07/03 12:29:04;;;;;;;6.90;4.90;;;10.10;99.90;;;;;;5048782;28;20739;-85
2021/07/03 12:31:41;;;;;;;7.05;5.53;;;10.00;99.90;;;;;;5049819;28;20427;-85
2021/07/03 12:34:11;;;;;;;9.00;5.57;;;10.00;99.90;;;;;;5051308;28;20383;-85
2021/07/03 12:36:44;;;;;;;6.82;4.57;;;9.90;99.90;;;;;;5054927;28;20465;-85
2021/07/03 12:39:17;;;;;;;7.50;5.53;;;9.90;99.90;;;;;;5063714;28;20394;-84
2021/07/03 12:42:03;;;;;;;6.05;4.28;;;9.90;99.90;;;;;;5052536;28;20406;-85
2021/07/03 12:44:43;;;;;;;5.85;3.67;;;9.80;99.90;;;;;;5053533;28;20542;-85
2021/07/03 12:47:19;;;;;;;9.03;5.27;;;9.80;99.90;;;;;;5051099;28;20407;-86
2021/07/03 12:49:56;;;;;;;9.88;5.40;;;9.80;99.90;;;;;;5066560;28;20387;-85
2021/07/03 12:52:35;;;;;;;8.25;5.43;;;9.80;99.90;;;;;;5054102;28;20403;-85